sensor_id;sensor_type;location;lat;lon;timestamp;P1;P2;P0
42410;PMS5003;28056;51.112;0.984;2022-09-25T00:00:25;4;4;
42410;PMS5003;28056;51.112;0.984;2022-09-25T00:04:46;4;4;
42410;PMS5003;28056;51.112;0.984;2022-09-25T00:07:13;3;3;
42410;PMS5003;28056;51.112;0.984;2022-09-25T00:09:40;4;3;
42410;PMS5003;28056;51.112;0.984;2022-09-25T00:12:08;2;2;
42410;PMS5003;28056;51.112;0.984;2022-09-25T00:14:37;2;2;
42410;PMS5003;28056;51.112;0.984;2022-09-25T00:17:04;3;3;
42410;PMS5003;28056;51.112;0.984;2022-09-25T00:19:31;2;2;
42410;PMS5003;28056;51.112;0.984;2022-09-25T00:21:58;2;2;
42410;PMS5003;28056;51.112;0.984;2022-09-25T00:24:26;2;2;
42410;PMS5003;28056;51.112;0.984;2022-09-25T00:26:54;3;3;
42410;PMS5003;28056;51.112;0.984;2022-09-25T00:29:21;2;2;
42410;PMS5003;28056;51.112;0.984;2022-09-25T00:31:49;6;4;
42410;PMS5003;28056;51.112;0.984;2022-09-25T00:34:16;7;6;
42410;PMS5003;28056;51.112;0.984;2022-09-25T00:36:44;4;3;
42410;PMS5003;28056;51.112;0.984;2022-09-25T00:39:11;3;3;
42410;PMS5003;28056;51.112;0.984;2022-09-25T00:41:38;4;4;
42410;PMS5003;28056;51.112;0.984;2022-09-25T00:44:39;4;3;
42410;PMS5003;28056;51.112;0.984;2022-09-25T00:47:18;7;3;
42410;PMS5003;28056;51.112;0.984;2022-09-25T00:49:49;6;3;
42410;PMS5003;28056;51.112;0.984;2022-09-25T00:52:20;6;3;
42410;PMS5003;28056;51.112;0.984;2022-09-25T00:54:50;2;2;
42410;PMS5003;28056;51.112;0.984;2022-09-25T00:57:20;4;1;
42410;PMS5003;28056;51.112;0.984;2022-09-25T00:59:51;2;2;
42410;PMS5003;28056;51.112;0.984;2022-09-25T01:02:23;2;2;
42410;PMS5003;28056;51.112;0.984;2022-09-25T01:04:53;4;2;
42410;PMS5003;28056;51.112;0.984;2022-09-25T01:07:22;3;2;
42410;PMS5003;28056;51.112;0.984;2022-09-25T01:09:50;1;1;
42410;PMS5003;28056;51.112;0.984;2022-09-25T01:12:17;2;2;
42410;PMS5003;28056;51.112;0.984;2022-09-25T01:14:45;3;3;
42410;PMS5003;28056;51.112;0.984;2022-09-25T01:17:14;6;6;
42410;PMS5003;28056;51.112;0.984;2022-09-25T01:19:49;7;4;
42410;PMS5003;28056;51.112;0.984;2022-09-25T01:22:29;3;3;
42410;PMS5003;28056;51.112;0.984;2022-09-25T01:25:09;3;3;
42410;PMS5003;28056;51.112;0.984;2022-09-25T01:27:46;1;1;
42410;PMS5003;28056;51.112;0.984;2022-09-25T01:30:26;3;3;
42410;PMS5003;28056;51.112;0.984;2022-09-25T01:33:00;2;2;
42410;PMS5003;28056;51.112;0.984;2022-09-25T01:35:36;2;2;
42410;PMS5003;28056;51.112;0.984;2022-09-25T01:38:13;3;3;
42410;PMS5003;28056;51.112;0.984;2022-09-25T01:40:51;2;2;
42410;PMS5003;28056;51.112;0.984;2022-09-25T01:43:24;6;4;
42410;PMS5003;28056;51.112;0.984;2022-09-25T01:45:59;2;2;
42410;PMS5003;28056;51.112;0.984;2022-09-25T01:48:29;2;2;
42410;PMS5003;28056;51.112;0.984;2022-09-25T01:50:59;3;3;
42410;PMS5003;28056;51.112;0.984;2022-09-25T01:53:31;2;2;
42410;PMS5003;28056;51.112;0.984;2022-09-25T01:56:02;3;2;
42410;PMS5003;28056;51.112;0.984;2022-09-25T01:58:35;3;3;
42410;PMS5003;28056;51.112;0.984;2022-09-25T02:01:08;3;2;
42410;PMS5003;28056;51.112;0.984;2022-09-25T02:03:42;4;3;
42410;PMS5003;28056;51.112;0.984;2022-09-25T02:06:15;3;3;
42410;PMS5003;28056;51.112;0.984;2022-09-25T02:08:46;6;3;
42410;PMS5003;28056;51.112;0.984;2022-09-25T02:11:15;5;2;
42410;PMS5003;28056;51.112;0.984;2022-09-25T02:13:42;4;2;
42410;PMS5003;28056;51.112;0.984;2022-09-25T02:16:13;3;3;
42410;PMS5003;28056;51.112;0.984;2022-09-25T02:18:43;3;3;
42410;PMS5003;28056;51.112;0.984;2022-09-25T02:21:14;4;4;
42410;PMS5003;28056;51.112;0.984;2022-09-25T02:23:49;2;2;
42410;PMS5003;28056;51.112;0.984;2022-09-25T02:26:23;4;2;
42410;PMS5003;28056;51.112;0.984;2022-09-25T02:28:53;4;3;
42410;PMS5003;28056;51.112;0.984;2022-09-25T02:31:24;7;4;
42410;PMS5003;28056;51.112;0.984;2022-09-25T02:33:55;3;3;
42410;PMS5003;28056;51.112;0.984;2022-09-25T02:36:23;4;3;
42410;PMS5003;28056;51.112;0.984;2022-09-25T02:38:50;2;2;
42410;PMS5003;28056;51.112;0.984;2022-09-25T02:41:24;5;3;
42410;PMS5003;28056;51.112;0.984;2022-09-25T02:44:06;5;2;
42410;PMS5003;28056;51.112;0.984;2022-09-25T02:46:43;5;5;
42410;PMS5003;28056;51.112;0.984;2022-09-25T02:49:21;2;2;
42410;PMS5003;28056;51.112;0.984;2022-09-25T02:51:56;3;2;
42410;PMS5003;28056;51.112;0.984;2022-09-25T02:54:31;3;2;
42410;PMS5003;28056;51.112;0.984;2022-09-25T02:57:05;6;2;
42410;PMS5003;28056;51.112;0.984;2022-09-25T02:59:39;2;2;
42410;PMS5003;28056;51.112;0.984;2022-09-25T03:02:13;3;3;
42410;PMS5003;28056;51.112;0.984;2022-09-25T03:04:42;2;2;
42410;PMS5003;28056;51.112;0.984;2022-09-25T03:07:12;5;5;
42410;PMS5003;28056;51.112;0.984;2022-09-25T03:09:40;5;2;
42410;PMS5003;28056;51.112;0.984;2022-09-25T03:12:10;3;2;
42410;PMS5003;28056;51.112;0.984;2022-09-25T03:14:38;3;2;
42410;PMS5003;28056;51.112;0.984;2022-09-25T03:17:05;3;2;
42410;PMS5003;28056;51.112;0.984;2022-09-25T03:19:34;2;2;
42410;PMS5003;28056;51.112;0.984;2022-09-25T03:22:02;2;2;
42410;PMS5003;28056;51.112;0.984;2022-09-25T03:24:30;6;5;
42410;PMS5003;28056;51.112;0.984;2022-09-25T03:26:58;8;8;
42410;PMS5003;28056;51.112;0.984;2022-09-25T03:29:25;3;3;
42410;PMS5003;28056;51.112;0.984;2022-09-25T03:31:52;2;2;
42410;PMS5003;28056;51.112;0.984;2022-09-25T03:34:19;2;2;
42410;PMS5003;28056;51.112;0.984;2022-09-25T03:36:46;3;3;
42410;PMS5003;28056;51.112;0.984;2022-09-25T03:39:13;8;3;
42410;PMS5003;28056;51.112;0.984;2022-09-25T03:41:41;5;2;
42410;PMS5003;28056;51.112;0.984;2022-09-25T03:44:09;3;3;
42410;PMS5003;28056;51.112;0.984;2022-09-25T03:46:37;1;1;
42410;PMS5003;28056;51.112;0.984;2022-09-25T03:49:04;1;1;
42410;PMS5003;28056;51.112;0.984;2022-09-25T03:51:32;1;1;
42410;PMS5003;28056;51.112;0.984;2022-09-25T03:53:59;10;7;
42410;PMS5003;28056;51.112;0.984;2022-09-25T03:56:27;3;3;
42410;PMS5003;28056;51.112;0.984;2022-09-25T03:58:55;3;2;
42410;PMS5003;28056;51.112;0.984;2022-09-25T04:01:24;1;1;
42410;PMS5003;28056;51.112;0.984;2022-09-25T04:03:53;2;2;
42410;PMS5003;28056;51.112;0.984;2022-09-25T04:06:21;7;5;
42410;PMS5003;28056;51.112;0.984;2022-09-25T04:08:50;2;1;
42410;PMS5003;28056;51.112;0.984;2022-09-25T04:11:19;3;2;
42410;PMS5003;28056;51.112;0.984;2022-09-25T04:13:47;6;2;
42410;PMS5003;28056;51.112;0.984;2022-09-25T04:16:15;3;3;
42410;PMS5003;28056;51.112;0.984;2022-09-25T04:18:42;1;1;
42410;PMS5003;28056;51.112;0.984;2022-09-25T04:21:11;1;1;
42410;PMS5003;28056;51.112;0.984;2022-09-25T04:23:40;5;2;
42410;PMS5003;28056;51.112;0.984;2022-09-25T04:26:07;6;2;
42410;PMS5003;28056;51.112;0.984;2022-09-25T04:28:35;2;2;
42410;PMS5003;28056;51.112;0.984;2022-09-25T04:31:03;2;2;
42410;PMS5003;28056;51.112;0.984;2022-09-25T04:33:31;5;3;
42410;PMS5003;28056;51.112;0.984;2022-09-25T04:35:58;5;2;
42410;PMS5003;28056;51.112;0.984;2022-09-25T04:38:25;3;2;
42410;PMS5003;28056;51.112;0.984;2022-09-25T04:40:54;2;2;
42410;PMS5003;28056;51.112;0.984;2022-09-25T04:43:21;3;3;
42410;PMS5003;28056;51.112;0.984;2022-09-25T04:45:48;3;3;
42410;PMS5003;28056;51.112;0.984;2022-09-25T04:48:15;3;2;
42410;PMS5003;28056;51.112;0.984;2022-09-25T04:50:46;2;2;
42410;PMS5003;28056;51.112;0.984;2022-09-25T04:53:14;6;2;
42410;PMS5003;28056;51.112;0.984;2022-09-25T04:55:42;3;3;
42410;PMS5003;28056;51.112;0.984;2022-09-25T04:58:09;5;3;
42410;PMS5003;28056;51.112;0.984;2022-09-25T05:00:37;3;3;
42410;PMS5003;28056;51.112;0.984;2022-09-25T05:03:05;5;3;
42410;PMS5003;28056;51.112;0.984;2022-09-25T05:05:33;3;1;
42410;PMS5003;28056;51.112;0.984;2022-09-25T05:08:01;2;2;
42410;PMS5003;28056;51.112;0.984;2022-09-25T05:10:30;8;3;
42410;PMS5003;28056;51.112;0.984;2022-09-25T05:12:59;2;2;
42410;PMS5003;28056;51.112;0.984;2022-09-25T05:15:29;3;3;
42410;PMS5003;28056;51.112;0.984;2022-09-25T05:17:59;3;3;
42410;PMS5003;28056;51.112;0.984;2022-09-25T05:20:27;5;2;
42410;PMS5003;28056;51.112;0.984;2022-09-25T05:22:55;5;3;
42410;PMS5003;28056;51.112;0.984;2022-09-25T05:25:22;5;3;
42410;PMS5003;28056;51.112;0.984;2022-09-25T05:27:50;5;3;
42410;PMS5003;28056;51.112;0.984;2022-09-25T05:30:18;2;2;
42410;PMS5003;28056;51.112;0.984;2022-09-25T05:32:47;5;5;
42410;PMS5003;28056;51.112;0.984;2022-09-25T05:35:14;3;3;
42410;PMS5003;28056;51.112;0.984;2022-09-25T05:37:43;3;3;
42410;PMS5003;28056;51.112;0.984;2022-09-25T05:40:11;5;5;
42410;PMS5003;28056;51.112;0.984;2022-09-25T05:42:38;3;3;
42410;PMS5003;28056;51.112;0.984;2022-09-25T05:45:06;5;3;
42410;PMS5003;28056;51.112;0.984;2022-09-25T05:47:34;8;2;
42410;PMS5003;28056;51.112;0.984;2022-09-25T05:50:01;6;2;
42410;PMS5003;28056;51.112;0.984;2022-09-25T05:52:29;3;3;
42410;PMS5003;28056;51.112;0.984;2022-09-25T05:54:57;3;3;
42410;PMS5003;28056;51.112;0.984;2022-09-25T05:57:24;6;3;
42410;PMS5003;28056;51.112;0.984;2022-09-25T05:59:51;3;3;
42410;PMS5003;28056;51.112;0.984;2022-09-25T06:02:18;3;3;
42410;PMS5003;28056;51.112;0.984;2022-09-25T06:04:45;7;5;
42410;PMS5003;28056;51.112;0.984;2022-09-25T06:07:12;5;2;
42410;PMS5003;28056;51.112;0.984;2022-09-25T06:09:40;6;5;
42410;PMS5003;28056;51.112;0.984;2022-09-25T06:12:07;8;3;
42410;PMS5003;28056;51.112;0.984;2022-09-25T06:14:34;5;3;
42410;PMS5003;28056;51.112;0.984;2022-09-25T06:17:01;6;5;
42410;PMS5003;28056;51.112;0.984;2022-09-25T06:19:30;5;5;
42410;PMS5003;28056;51.112;0.984;2022-09-25T06:21:57;11;7;
42410;PMS5003;28056;51.112;0.984;2022-09-25T06:24:24;7;6;
42410;PMS5003;28056;51.112;0.984;2022-09-25T06:26:51;5;5;
42410;PMS5003;28056;51.112;0.984;2022-09-25T06:29:18;6;6;
42410;PMS5003;28056;51.112;0.984;2022-09-25T06:31:45;7;5;
42410;PMS5003;28056;51.112;0.984;2022-09-25T06:34:12;5;5;
42410;PMS5003;28056;51.112;0.984;2022-09-25T06:36:39;5;5;
42410;PMS5003;28056;51.112;0.984;2022-09-25T06:39:07;6;6;
42410;PMS5003;28056;51.112;0.984;2022-09-25T06:41:34;6;6;
42410;PMS5003;28056;51.112;0.984;2022-09-25T06:44:01;6;3;
42410;PMS5003;28056;51.112;0.984;2022-09-25T06:46:28;8;8;
42410;PMS5003;28056;51.112;0.984;2022-09-25T06:48:55;5;5;
42410;PMS5003;28056;51.112;0.984;2022-09-25T06:51:23;7;7;
42410;PMS5003;28056;51.112;0.984;2022-09-25T06:53:51;8;6;
42410;PMS5003;28056;51.112;0.984;2022-09-25T06:56:19;5;3;
42410;PMS5003;28056;51.112;0.984;2022-09-25T06:58:46;5;5;
42410;PMS5003;28056;51.112;0.984;2022-09-25T07:01:13;11;10;
42410;PMS5003;28056;51.112;0.984;2022-09-25T07:03:41;6;6;
42410;PMS5003;28056;51.112;0.984;2022-09-25T07:06:10;5;5;
42410;PMS5003;28056;51.112;0.984;2022-09-25T07:08:39;12;11;
42410;PMS5003;28056;51.112;0.984;2022-09-25T07:11:06;13;10;
42410;PMS5003;28056;51.112;0.984;2022-09-25T07:13:37;7;6;
42410;PMS5003;28056;51.112;0.984;2022-09-25T07:16:05;12;10;
42410;PMS5003;28056;51.112;0.984;2022-09-25T07:18:33;11;7;
42410;PMS5003;28056;51.112;0.984;2022-09-25T07:21:03;7;7;
42410;PMS5003;28056;51.112;0.984;2022-09-25T07:23:33;11;7;
42410;PMS5003;28056;51.112;0.984;2022-09-25T07:26:05;10;10;
42410;PMS5003;28056;51.112;0.984;2022-09-25T07:28:34;8;8;
42410;PMS5003;28056;51.112;0.984;2022-09-25T07:31:10;11;8;
42410;PMS5003;28056;51.112;0.984;2022-09-25T07:33:40;11;8;
42410;PMS5003;28056;51.112;0.984;2022-09-25T07:36:08;6;6;
42410;PMS5003;28056;51.112;0.984;2022-09-25T07:38:35;11;8;
42410;PMS5003;28056;51.112;0.984;2022-09-25T07:41:03;11;11;
42410;PMS5003;28056;51.112;0.984;2022-09-25T07:43:32;10;10;
42410;PMS5003;28056;51.112;0.984;2022-09-25T07:46:00;8;8;
42410;PMS5003;28056;51.112;0.984;2022-09-25T07:48:27;8;8;
42410;PMS5003;28056;51.112;0.984;2022-09-25T07:50:57;13;8;
42410;PMS5003;28056;51.112;0.984;2022-09-25T07:53:26;8;8;
42410;PMS5003;28056;51.112;0.984;2022-09-25T07:55:54;7;7;
42410;PMS5003;28056;51.112;0.984;2022-09-25T07:58:23;8;8;
42410;PMS5003;28056;51.112;0.984;2022-09-25T08:00:50;9;7;
42410;PMS5003;28056;51.112;0.984;2022-09-25T08:03:19;12;9;
42410;PMS5003;28056;51.112;0.984;2022-09-25T08:05:47;7;7;
42410;PMS5003;28056;51.112;0.984;2022-09-25T08:08:14;12;9;
42410;PMS5003;28056;51.112;0.984;2022-09-25T08:10:41;8;6;
42410;PMS5003;28056;51.112;0.984;2022-09-25T08:13:08;8;7;
42410;PMS5003;28056;51.112;0.984;2022-09-25T08:15:35;9;7;
42410;PMS5003;28056;51.112;0.984;2022-09-25T08:18:02;9;8;
42410;PMS5003;28056;51.112;0.984;2022-09-25T08:20:30;8;8;
42410;PMS5003;28056;51.112;0.984;2022-09-25T08:22:57;8;7;
42410;PMS5003;28056;51.112;0.984;2022-09-25T08:25:24;7;7;
42410;PMS5003;28056;51.112;0.984;2022-09-25T08:27:52;11;7;
42410;PMS5003;28056;51.112;0.984;2022-09-25T08:30:19;7;7;
42410;PMS5003;28056;51.112;0.984;2022-09-25T08:32:47;4;4;
42410;PMS5003;28056;51.112;0.984;2022-09-25T08:35:14;7;7;
42410;PMS5003;28056;51.112;0.984;2022-09-25T08:37:41;6;6;
42410;PMS5003;28056;51.112;0.984;2022-09-25T08:40:11;9;7;
42410;PMS5003;28056;51.112;0.984;2022-09-25T08:42:42;9;6;
42410;PMS5003;28056;51.112;0.984;2022-09-25T08:45:18;6;6;
42410;PMS5003;28056;51.112;0.984;2022-09-25T08:47:51;8;6;
42410;PMS5003;28056;51.112;0.984;2022-09-25T08:50:22;10;7;
42410;PMS5003;28056;51.112;0.984;2022-09-25T08:52:52;9;7;
42410;PMS5003;28056;51.112;0.984;2022-09-25T08:55:33;9;8;
42410;PMS5003;28056;51.112;0.984;2022-09-25T08:58:04;5;5;
42410;PMS5003;28056;51.112;0.984;2022-09-25T09:00:33;9;5;
42410;PMS5003;28056;51.112;0.984;2022-09-25T09:03:01;8;7;
42410;PMS5003;28056;51.112;0.984;2022-09-25T09:05:29;4;4;
42410;PMS5003;28056;51.112;0.984;2022-09-25T09:08:02;4;4;
42410;PMS5003;28056;51.112;0.984;2022-09-25T09:10:34;8;4;
42410;PMS5003;28056;51.112;0.984;2022-09-25T09:13:10;4;4;
42410;PMS5003;28056;51.112;0.984;2022-09-25T09:15:44;2;2;
42410;PMS5003;28056;51.112;0.984;2022-09-25T09:18:19;8;5;
42410;PMS5003;28056;51.112;0.984;2022-09-25T09:20:50;7;4;
42410;PMS5003;28056;51.112;0.984;2022-09-25T09:23:19;4;4;
42410;PMS5003;28056;51.112;0.984;2022-09-25T09:25:52;3;3;
42410;PMS5003;28056;51.112;0.984;2022-09-25T09:28:32;4;4;
42410;PMS5003;28056;51.112;0.984;2022-09-25T09:31:15;3;3;
42410;PMS5003;28056;51.112;0.984;2022-09-25T09:33:50;3;3;
42410;PMS5003;28056;51.112;0.984;2022-09-25T09:36:27;4;3;
42410;PMS5003;28056;51.112;0.984;2022-09-25T09:39:04;2;2;
42410;PMS5003;28056;51.112;0.984;2022-09-25T09:41:41;5;2;
42410;PMS5003;28056;51.112;0.984;2022-09-25T09:44:21;1;1;
42410;PMS5003;28056;51.112;0.984;2022-09-25T09:47:00;2;2;
42410;PMS5003;28056;51.112;0.984;2022-09-25T09:49:35;2;2;
42410;PMS5003;28056;51.112;0.984;2022-09-25T09:52:09;4;3;
42410;PMS5003;28056;51.112;0.984;2022-09-25T09:54:41;1;1;
42410;PMS5003;28056;51.112;0.984;2022-09-25T09:57:13;2;2;
42410;PMS5003;28056;51.112;0.984;2022-09-25T09:59:45;4;2;
42410;PMS5003;28056;51.112;0.984;2022-09-25T10:02:30;0;0;
42410;PMS5003;28056;51.112;0.984;2022-09-25T10:05:03;2;2;
42410;PMS5003;28056;51.112;0.984;2022-09-25T10:07:35;2;2;
42410;PMS5003;28056;51.112;0.984;2022-09-25T10:10:09;2;2;
42410;PMS5003;28056;51.112;0.984;2022-09-25T10:12:40;3;3;
42410;PMS5003;28056;51.112;0.984;2022-09-25T10:15:18;1;1;
42410;PMS5003;28056;51.112;0.984;2022-09-25T10:17:52;1;1;
42410;PMS5003;28056;51.112;0.984;2022-09-25T10:20:23;1;1;
42410;PMS5003;28056;51.112;0.984;2022-09-25T10:22:55;6;1;
42410;PMS5003;28056;51.112;0.984;2022-09-25T10:25:34;2;2;
42410;PMS5003;28056;51.112;0.984;2022-09-25T10:28:20;4;3;
42410;PMS5003;28056;51.112;0.984;2022-09-25T10:30:49;3;3;
42410;PMS5003;28056;51.112;0.984;2022-09-25T10:33:18;4;2;
42410;PMS5003;28056;51.112;0.984;2022-09-25T10:35:47;3;3;
42410;PMS5003;28056;51.112;0.984;2022-09-25T10:38:18;3;3;
42410;PMS5003;28056;51.112;0.984;2022-09-25T10:40:56;5;1;
42410;PMS5003;28056;51.112;0.984;2022-09-25T10:43:27;2;1;
42410;PMS5003;28056;51.112;0.984;2022-09-25T10:46:12;2;2;
42410;PMS5003;28056;51.112;0.984;2022-09-25T10:48:41;3;2;
42410;PMS5003;28056;51.112;0.984;2022-09-25T10:51:09;3;3;
42410;PMS5003;28056;51.112;0.984;2022-09-25T10:53:37;2;2;
42410;PMS5003;28056;51.112;0.984;2022-09-25T10:56:05;2;1;
42410;PMS5003;28056;51.112;0.984;2022-09-25T10:58:35;2;2;
42410;PMS5003;28056;51.112;0.984;2022-09-25T11:01:07;2;1;
42410;PMS5003;28056;51.112;0.984;2022-09-25T11:03:37;2;1;
42410;PMS5003;28056;51.112;0.984;2022-09-25T11:06:15;4;1;
42410;PMS5003;28056;51.112;0.984;2022-09-25T11:08:46;2;2;
42410;PMS5003;28056;51.112;0.984;2022-09-25T11:11:20;5;1;
42410;PMS5003;28056;51.112;0.984;2022-09-25T11:13:49;2;1;
42410;PMS5003;28056;51.112;0.984;2022-09-25T11:16:19;2;2;
42410;PMS5003;28056;51.112;0.984;2022-09-25T11:18:48;2;1;
42410;PMS5003;28056;51.112;0.984;2022-09-25T11:21:18;2;2;
42410;PMS5003;28056;51.112;0.984;2022-09-25T11:23:56;2;2;
42410;PMS5003;28056;51.112;0.984;2022-09-25T11:26:30;2;2;
42410;PMS5003;28056;51.112;0.984;2022-09-25T11:29:05;2;2;
42410;PMS5003;28056;51.112;0.984;2022-09-25T11:31:39;3;3;
42410;PMS5003;28056;51.112;0.984;2022-09-25T11:34:15;3;1;
42410;PMS5003;28056;51.112;0.984;2022-09-25T11:36:52;2;2;
42410;PMS5003;28056;51.112;0.984;2022-09-25T11:39:28;4;2;
42410;PMS5003;28056;51.112;0.984;2022-09-25T11:42:04;2;1;
42410;PMS5003;28056;51.112;0.984;2022-09-25T11:44:36;0;0;
42410;PMS5003;28056;51.112;0.984;2022-09-25T11:47:10;1;1;
42410;PMS5003;28056;51.112;0.984;2022-09-25T11:49:41;2;1;
42410;PMS5003;28056;51.112;0.984;2022-09-25T11:52:16;3;1;
42410;PMS5003;28056;51.112;0.984;2022-09-25T11:54:56;1;1;
42410;PMS5003;28056;51.112;0.984;2022-09-25T11:57:40;5;2;
42410;PMS5003;28056;51.112;0.984;2022-09-25T12:00:16;2;1;
42410;PMS5003;28056;51.112;0.984;2022-09-25T12:02:54;1;1;
42410;PMS5003;28056;51.112;0.984;2022-09-25T12:05:38;2;1;
42410;PMS5003;28056;51.112;0.984;2022-09-25T12:08:19;0;0;
42410;PMS5003;28056;51.112;0.984;2022-09-25T12:10:59;2;2;
42410;PMS5003;28056;51.112;0.984;2022-09-25T12:13:36;1;1;
42410;PMS5003;28056;51.112;0.984;2022-09-25T12:16:12;2;1;
42410;PMS5003;28056;51.112;0.984;2022-09-25T12:18:52;2;2;
42410;PMS5003;28056;51.112;0.984;2022-09-25T12:21:31;1;1;
42410;PMS5003;28056;51.112;0.984;2022-09-25T12:24:10;2;2;
42410;PMS5003;28056;51.112;0.984;2022-09-25T12:26:45;0;0;
42410;PMS5003;28056;51.112;0.984;2022-09-25T12:29:24;2;2;
42410;PMS5003;28056;51.112;0.984;2022-09-25T12:32:05;2;1;
42410;PMS5003;28056;51.112;0.984;2022-09-25T12:34:47;1;1;
42410;PMS5003;28056;51.112;0.984;2022-09-25T12:37:26;4;1;
42410;PMS5003;28056;51.112;0.984;2022-09-25T12:40:00;1;1;
42410;PMS5003;28056;51.112;0.984;2022-09-25T12:42:35;1;1;
42410;PMS5003;28056;51.112;0.984;2022-09-25T12:45:11;1;1;
42410;PMS5003;28056;51.112;0.984;2022-09-25T12:47:46;1;1;
42410;PMS5003;28056;51.112;0.984;2022-09-25T12:50:25;4;4;
42410;PMS5003;28056;51.112;0.984;2022-09-25T12:52:58;5;5;
42410;PMS5003;28056;51.112;0.984;2022-09-25T12:55:32;1;1;
42410;PMS5003;28056;51.112;0.984;2022-09-25T12:58:06;1;1;
42410;PMS5003;28056;51.112;0.984;2022-09-25T13:00:41;1;1;
42410;PMS5003;28056;51.112;0.984;2022-09-25T13:03:13;0;0;
42410;PMS5003;28056;51.112;0.984;2022-09-25T13:05:47;1;1;
42410;PMS5003;28056;51.112;0.984;2022-09-25T13:08:20;1;1;
42410;PMS5003;28056;51.112;0.984;2022-09-25T13:10:54;1;1;
42410;PMS5003;28056;51.112;0.984;2022-09-25T13:13:26;1;1;
42410;PMS5003;28056;51.112;0.984;2022-09-25T13:16:02;2;1;
42410;PMS5003;28056;51.112;0.984;2022-09-25T13:18:29;3;1;
42410;PMS5003;28056;51.112;0.984;2022-09-25T13:20:57;1;1;
42410;PMS5003;28056;51.112;0.984;2022-09-25T13:23:47;2;1;
42410;PMS5003;28056;51.112;0.984;2022-09-25T13:26:17;3;1;
42410;PMS5003;28056;51.112;0.984;2022-09-25T13:28:48;0;0;
42410;PMS5003;28056;51.112;0.984;2022-09-25T13:31:20;0;0;
42410;PMS5003;28056;51.112;0.984;2022-09-25T13:33:51;0;0;
42410;PMS5003;28056;51.112;0.984;2022-09-25T13:36:29;2;0;
42410;PMS5003;28056;51.112;0.984;2022-09-25T13:39:00;0;0;
42410;PMS5003;28056;51.112;0.984;2022-09-25T13:41:29;1;0;
42410;PMS5003;28056;51.112;0.984;2022-09-25T13:45:05;1;1;
42410;PMS5003;28056;51.112;0.984;2022-09-25T13:47:58;0;0;
42410;PMS5003;28056;51.112;0.984;2022-09-25T13:50:29;1;1;
42410;PMS5003;28056;51.112;0.984;2022-09-25T13:53:18;0;0;
42410;PMS5003;28056;51.112;0.984;2022-09-25T13:56:21;0;0;
42410;PMS5003;28056;51.112;0.984;2022-09-25T13:59:51;0;0;
42410;PMS5003;28056;51.112;0.984;2022-09-25T14:02:35;0;0;
42410;PMS5003;28056;51.112;0.984;2022-09-25T14:05:08;1;1;
42410;PMS5003;28056;51.112;0.984;2022-09-25T14:07:41;1;1;
42410;PMS5003;28056;51.112;0.984;2022-09-25T14:10:11;1;0;
42410;PMS5003;28056;51.112;0.984;2022-09-25T14:12:41;0;0;
42410;PMS5003;28056;51.112;0.984;2022-09-25T14:15:20;1;1;
42410;PMS5003;28056;51.112;0.984;2022-09-25T14:17:51;3;1;
42410;PMS5003;28056;51.112;0.984;2022-09-25T14:20:26;1;1;
42410;PMS5003;28056;51.112;0.984;2022-09-25T14:22:59;2;2;
42410;PMS5003;28056;51.112;0.984;2022-09-25T14:25:31;2;2;
42410;PMS5003;28056;51.112;0.984;2022-09-25T14:28:01;2;1;
42410;PMS5003;28056;51.112;0.984;2022-09-25T14:30:30;1;1;
42410;PMS5003;28056;51.112;0.984;2022-09-25T14:33:06;2;0;
42410;PMS5003;28056;51.112;0.984;2022-09-25T14:35:46;1;1;
42410;PMS5003;28056;51.112;0.984;2022-09-25T14:38:26;2;2;
42410;PMS5003;28056;51.112;0.984;2022-09-25T14:41:14;1;1;
42410;PMS5003;28056;51.112;0.984;2022-09-25T14:43:58;1;1;
42410;PMS5003;28056;51.112;0.984;2022-09-25T14:46:39;1;1;
42410;PMS5003;28056;51.112;0.984;2022-09-25T14:49:11;2;2;
42410;PMS5003;28056;51.112;0.984;2022-09-25T14:51:47;1;1;
42410;PMS5003;28056;51.112;0.984;2022-09-25T14:54:17;1;1;
42410;PMS5003;28056;51.112;0.984;2022-09-25T14:56:47;1;1;
42410;PMS5003;28056;51.112;0.984;2022-09-25T14:59:28;1;1;
42410;PMS5003;28056;51.112;0.984;2022-09-25T15:02:02;1;1;
42410;PMS5003;28056;51.112;0.984;2022-09-25T15:04:31;0;0;
42410;PMS5003;28056;51.112;0.984;2022-09-25T15:07:00;4;1;
42410;PMS5003;28056;51.112;0.984;2022-09-25T15:09:36;1;1;
42410;PMS5003;28056;51.112;0.984;2022-09-25T15:12:08;1;1;
42410;PMS5003;28056;51.112;0.984;2022-09-25T15:15:00;1;1;
42410;PMS5003;28056;51.112;0.984;2022-09-25T15:17:31;3;1;
42410;PMS5003;28056;51.112;0.984;2022-09-25T15:20:04;1;1;
42410;PMS5003;28056;51.112;0.984;2022-09-25T15:22:37;0;0;
42410;PMS5003;28056;51.112;0.984;2022-09-25T15:25:06;1;1;
42410;PMS5003;28056;51.112;0.984;2022-09-25T15:27:39;1;1;
42410;PMS5003;28056;51.112;0.984;2022-09-25T15:30:12;3;1;
42410;PMS5003;28056;51.112;0.984;2022-09-25T15:32:41;3;1;
42410;PMS5003;28056;51.112;0.984;2022-09-25T15:35:14;1;1;
42410;PMS5003;28056;51.112;0.984;2022-09-25T15:37:42;1;1;
42410;PMS5003;28056;51.112;0.984;2022-09-25T15:40:17;1;1;
42410;PMS5003;28056;51.112;0.984;2022-09-25T15:42:46;0;0;
42410;PMS5003;28056;51.112;0.984;2022-09-25T15:45:47;2;2;
42410;PMS5003;28056;51.112;0.984;2022-09-25T15:48:22;2;2;
42410;PMS5003;28056;51.112;0.984;2022-09-25T15:50:52;0;0;
42410;PMS5003;28056;51.112;0.984;2022-09-25T15:53:23;1;1;
42410;PMS5003;28056;51.112;0.984;2022-09-25T15:56:03;1;1;
42410;PMS5003;28056;51.112;0.984;2022-09-25T15:58:42;2;1;
42410;PMS5003;28056;51.112;0.984;2022-09-25T16:01:11;0;0;
42410;PMS5003;28056;51.112;0.984;2022-09-25T16:03:43;2;2;
42410;PMS5003;28056;51.112;0.984;2022-09-25T16:06:14;1;1;
42410;PMS5003;28056;51.112;0.984;2022-09-25T16:08:42;1;1;
42410;PMS5003;28056;51.112;0.984;2022-09-25T16:11:14;1;1;
42410;PMS5003;28056;51.112;0.984;2022-09-25T16:13:43;1;1;
42410;PMS5003;28056;51.112;0.984;2022-09-25T16:16:17;1;1;
42410;PMS5003;28056;51.112;0.984;2022-09-25T16:18:46;1;1;
42410;PMS5003;28056;51.112;0.984;2022-09-25T16:21:15;1;1;
42410;PMS5003;28056;51.112;0.984;2022-09-25T16:23:50;3;2;
42410;PMS5003;28056;51.112;0.984;2022-09-25T16:26:21;2;2;
42410;PMS5003;28056;51.112;0.984;2022-09-25T16:29:16;2;2;
42410;PMS5003;28056;51.112;0.984;2022-09-25T16:31:46;1;1;
42410;PMS5003;28056;51.112;0.984;2022-09-25T16:34:16;2;2;
42410;PMS5003;28056;51.112;0.984;2022-09-25T16:36:46;1;1;
42410;PMS5003;28056;51.112;0.984;2022-09-25T16:39:30;2;2;
42410;PMS5003;28056;51.112;0.984;2022-09-25T16:41:59;1;1;
42410;PMS5003;28056;51.112;0.984;2022-09-25T16:45:00;1;1;
42410;PMS5003;28056;51.112;0.984;2022-09-25T16:47:34;1;1;
42410;PMS5003;28056;51.112;0.984;2022-09-25T16:50:02;2;2;
42410;PMS5003;28056;51.112;0.984;2022-09-25T16:52:29;3;2;
42410;PMS5003;28056;51.112;0.984;2022-09-25T16:55:02;1;1;
42410;PMS5003;28056;51.112;0.984;2022-09-25T16:57:31;1;1;
42410;PMS5003;28056;51.112;0.984;2022-09-25T16:59:59;2;2;
42410;PMS5003;28056;51.112;0.984;2022-09-25T17:02:27;1;1;
42410;PMS5003;28056;51.112;0.984;2022-09-25T17:04:57;3;3;
42410;PMS5003;28056;51.112;0.984;2022-09-25T17:07:26;2;2;
42410;PMS5003;28056;51.112;0.984;2022-09-25T17:09:54;1;1;
42410;PMS5003;28056;51.112;0.984;2022-09-25T17:12:22;2;2;
42410;PMS5003;28056;51.112;0.984;2022-09-25T17:14:53;1;1;
42410;PMS5003;28056;51.112;0.984;2022-09-25T17:17:21;1;1;
42410;PMS5003;28056;51.112;0.984;2022-09-25T17:19:49;1;1;
42410;PMS5003;28056;51.112;0.984;2022-09-25T17:22:17;1;1;
42410;PMS5003;28056;51.112;0.984;2022-09-25T17:24:44;2;2;